createdAt,value
2022-08-03T00:00:56.050Z,100275.00
2022-08-03T00:06:04.337Z,100272.53
2022-08-03T00:11:08.019Z,100270.75
2022-08-03T00:16:11.673Z,100258.31
2022-08-03T00:21:15.894Z,100268.78
2022-08-03T00:26:18.707Z,100266.59
2022-08-03T00:31:39.714Z,100264.38
2022-08-03T00:36:45.560Z,100269.06
2022-08-03T00:41:48.807Z,100253.94
2022-08-03T00:46:51.635Z,100261.16
2022-08-03T00:51:56.041Z,100269.97
2022-08-03T00:57:00.301Z,100262.78
2022-08-03T01:02:03.223Z,100254.81
2022-08-03T01:07:14.165Z,100260.16
2022-08-03T01:12:23.899Z,100253.00
2022-08-03T01:17:30.295Z,100251.41
2022-08-03T01:22:53.120Z,100258.00
2022-08-03T01:27:59.325Z,100246.97
2022-08-03T01:33:05.526Z,100243.88
2022-08-03T01:38:12.664Z,100242.25
2022-08-03T01:44:26.406Z,100242.06
2022-08-03T01:48:44.688Z,100248.41
2022-08-03T01:53:48.157Z,100247.16
2022-08-03T01:58:51.289Z,100241.66
2022-08-03T02:04:00.550Z,100235.28
2022-08-03T02:09:04.957Z,100241.44
2022-08-03T02:14:07.867Z,100237.94
2022-08-03T02:19:12.735Z,100240.44
2022-08-03T02:24:15.480Z,100242.47
2022-08-03T02:29:21.669Z,100240.00
2022-08-03T02:34:47.630Z,100236.56
2022-08-03T02:39:53.269Z,100240.00
2022-08-03T02:44:57.818Z,100245.56
2022-08-03T02:50:02.923Z,100239.63
2022-08-03T02:55:07.170Z,100230.00
2022-08-03T03:00:11.174Z,100236.97
2022-08-03T03:05:56.407Z,100233.69
2022-08-03T03:10:39.083Z,100245.56
2022-08-03T03:15:42.063Z,100239.66
2022-08-03T03:20:46.725Z,100236.97
2022-08-03T03:25:49.645Z,100232.88
2022-08-03T03:30:53.463Z,100228.56
2022-08-03T03:35:58.845Z,100235.53
2022-08-03T03:41:01.604Z,100232.88
2022-08-03T03:46:04.706Z,100236.38
2022-08-03T03:51:09.212Z,100240.22
2022-08-03T03:56:11.906Z,100237.38
2022-08-03T04:01:15.015Z,100233.09
2022-08-03T04:06:37.496Z,100232.69
2022-08-03T04:11:42.862Z,100242.50
2022-08-03T04:16:47.762Z,100237.56
2022-08-03T04:21:53.808Z,100242.09
2022-08-03T04:27:02.291Z,100251.09
2022-08-03T04:32:06.881Z,100258.06
2022-08-03T04:37:14.150Z,100249.66
2022-08-03T04:42:17.608Z,100265.00
2022-08-03T04:47:20.972Z,100262.16
2022-08-03T04:52:25.424Z,100266.47
2022-08-03T04:57:28.145Z,100268.09
2022-08-03T05:02:31.873Z,100274.84
2022-08-03T05:07:36.710Z,100273.63
2022-08-03T05:12:39.590Z,100275.66
2022-08-03T05:17:42.723Z,100282.19
2022-08-03T05:22:46.796Z,100289.34
2022-08-03T05:27:49.573Z,100287.66
2022-08-03T05:32:53.393Z,100285.34
2022-08-03T05:37:57.472Z,100285.72
2022-08-03T05:43:00.879Z,100285.88
2022-08-03T05:48:03.572Z,100278.53
2022-08-03T05:53:07.687Z,100275.41
2022-08-03T05:58:10.436Z,100280.00
2022-08-03T06:03:14.110Z,100277.47
2022-08-03T06:08:18.250Z,100285.41
2022-08-03T06:13:20.981Z,100290.28
2022-08-03T06:18:24.540Z,100294.69
2022-08-03T06:23:52.879Z,100292.19
2022-08-03T06:28:53.920Z,100286.72
2022-08-03T06:34:32.618Z,100293.00
2022-08-03T06:39:23.484Z,100290.00
2022-08-03T06:44:26.881Z,100279.75
2022-08-03T06:49:29.623Z,100288.91
2022-08-03T06:54:36.395Z,100295.34
2022-08-03T07:00:07.918Z,100296.94
2022-08-03T07:05:02.801Z,100290.16
2022-08-03T07:10:08.415Z,100287.47
2022-08-03T07:15:20.490Z,100294.97
2022-08-03T07:20:34.654Z,100291.88
2022-08-03T07:25:38.720Z,100286.91
2022-08-03T07:30:41.451Z,100292.31
2022-08-03T07:35:44.374Z,100289.78
2022-08-03T07:40:48.683Z,100291.69
2022-08-03T07:45:51.394Z,100291.34
2022-08-03T07:50:54.299Z,100295.56
2022-08-03T07:55:58.562Z,100290.19
2022-08-03T08:01:01.382Z,100288.47
2022-08-03T08:06:04.174Z,100289.19
2022-08-03T08:11:09.999Z,100278.22
2022-08-03T08:16:13.006Z,100274.84
2022-08-03T08:21:15.728Z,100280.06
2022-08-03T08:26:20.819Z,100275.13
2022-08-03T08:31:23.498Z,100277.38
2022-08-03T08:36:26.197Z,100279.91
2022-08-03T08:41:33.730Z,100267.97
2022-08-03T08:46:36.711Z,100275.53
2022-08-03T08:51:54.240Z,100275.28
2022-08-03T08:57:21.072Z,100273.41
2022-08-03T09:02:31.345Z,100258.84
2022-08-03T09:07:34.452Z,100264.56
2022-08-03T09:12:44.029Z,100264.19
2022-08-03T09:17:50.902Z,100252.94
2022-08-03T09:22:56.446Z,100261.28
2022-08-03T09:28:08.398Z,100258.03
2022-08-03T09:33:12.731Z,100253.06
2022-08-03T09:38:16.598Z,100258.03
2022-08-03T09:43:22.532Z,100255.22
2022-08-03T09:48:26.700Z,100252.03
2022-08-03T09:53:29.464Z,100251.13
2022-08-03T09:58:33.486Z,100243.91
2022-08-03T10:03:47.031Z,100250.09
2022-08-03T10:09:08.811Z,100244.31
2022-08-03T10:14:18.934Z,100242.78
2022-08-03T10:19:22.293Z,100236.09
2022-08-03T10:24:27.285Z,100238.81
2022-08-03T10:29:37.073Z,100236.75
2022-08-03T10:34:44.502Z,100226.66
2022-08-03T10:39:54.329Z,100223.03
2022-08-03T10:45:04.675Z,100219.13
2022-08-03T10:50:08.632Z,100218.13
2022-08-03T10:55:50.275Z,100205.22
2022-08-03T11:00:54.858Z,100203.94
2022-08-03T11:06:16.887Z,100200.72
2022-08-03T11:11:28.432Z,100199.44
2022-08-03T11:16:34.996Z,100195.94
2022-08-03T11:21:57.401Z,100193.50
2022-08-03T11:27:18.214Z,100193.75
2022-08-03T11:32:58.151Z,100178.88
2022-08-03T11:38:07.017Z,100185.00
2022-08-03T11:43:11.168Z,100178.16
2022-08-03T11:48:17.080Z,100183.88
2022-08-03T11:53:20.368Z,100186.16
2022-08-03T11:59:01.385Z,100181.47
2022-08-03T12:03:49.148Z,100168.97
2022-08-03T12:08:52.352Z,100160.66
2022-08-03T12:14:43.823Z,100167.94
2022-08-03T12:19:19.434Z,100167.03
2022-08-03T12:24:22.158Z,100157.00
2022-08-03T12:29:25.750Z,100140.88
2022-08-03T12:34:48.183Z,100146.22
2022-08-03T12:40:02.308Z,100134.03
2022-08-03T12:45:21.822Z,100141.28
2022-08-03T12:50:31.465Z,100136.69
2022-08-03T12:56:04.344Z,100134.94
2022-08-03T13:00:58.638Z,100123.84
2022-08-03T13:06:02.786Z,100124.44
2022-08-03T13:11:22.326Z,100129.44
2022-08-03T13:16:25.696Z,100117.38
2022-08-03T13:21:29.880Z,100106.84
2022-08-03T13:26:32.977Z,100118.09
2022-08-03T13:31:35.749Z,100116.66
2022-08-03T13:37:10.312Z,100110.09
2022-08-03T13:42:13.247Z,100104.13
2022-08-03T13:47:16.243Z,100104.50
2022-08-03T13:52:20.778Z,100091.41
2022-08-03T13:58:04.253Z,100085.00
2022-08-03T14:02:46.747Z,100081.72
2022-08-03T14:07:50.857Z,100072.09
2022-08-03T14:13:00.444Z,100067.81
2022-08-03T14:18:03.471Z,100070.75
2022-08-03T14:23:08.713Z,100072.50
2022-08-03T14:28:11.740Z,100065.09
2022-08-03T14:33:14.436Z,100069.03
2022-08-03T14:38:19.411Z,100062.91
2022-08-03T14:43:22.281Z,100066.97
2022-08-03T14:50:29.093Z,100053.31
2022-08-03T14:53:51.293Z,100049.22
2022-08-03T14:58:54.267Z,100042.03
2022-08-03T15:03:56.999Z,100040.88
2022-08-03T15:09:21.124Z,100030.91
2022-08-03T15:14:28.486Z,100026.56
2022-08-03T15:20:01.244Z,100028.41
2022-08-03T15:25:00.549Z,100017.09
2022-08-03T15:30:10.112Z,100014.22
2022-08-03T15:35:13.211Z,100013.41
2022-08-03T15:40:17.480Z,100002.53
2022-08-03T15:45:20.678Z,99996.63
2022-08-03T15:50:23.609Z,100004.44
2022-08-03T15:55:27.783Z,99995.34
2022-08-03T16:00:33.528Z,100006.22
2022-08-03T16:05:36.658Z,99999.88
2022-08-03T16:10:40.919Z,99990.03
2022-08-03T16:15:43.610Z,99996.16
2022-08-03T16:20:46.760Z,99987.78
2022-08-03T16:25:51.143Z,99986.84
2022-08-03T16:30:53.836Z,99975.28
2022-08-03T16:35:56.554Z,99984.81
2022-08-03T16:41:00.631Z,99980.00
2022-08-03T16:46:03.529Z,99988.06
2022-08-03T16:51:06.233Z,99983.41
2022-08-03T16:56:11.242Z,99980.56
2022-08-03T17:01:22.246Z,99983.16
2022-08-03T17:06:33.915Z,99975.78
2022-08-03T17:11:43.994Z,99981.56
2022-08-03T17:16:52.791Z,99980.47
2022-08-03T17:22:04.242Z,99983.59
2022-08-03T17:27:18.573Z,99982.31
2022-08-03T17:32:34.695Z,99977.34
2022-08-03T17:37:58.446Z,99988.53
2022-08-03T17:44:14.078Z,99982.94
2022-08-03T17:48:26.967Z,99982.16
2022-08-03T17:53:30.831Z,99988.25
2022-08-03T17:58:55.062Z,99982.94
2022-08-03T18:04:02.727Z,99997.25
2022-08-03T18:10:04.730Z,99985.41
2022-08-03T18:14:57.264Z,99990.25
2022-08-03T18:20:09.903Z,99990.47
2022-08-03T18:25:19.026Z,99992.47
2022-08-03T18:30:54.133Z,99999.50
2022-08-03T18:35:58.497Z,99998.13
2022-08-03T18:41:01.944Z,99996.72
2022-08-03T18:46:07.941Z,99992.00
2022-08-03T18:51:12.163Z,99994.00
2022-08-03T18:56:35.607Z,99997.31
2022-08-03T19:02:00.742Z,99997.66
2022-08-03T19:07:08.198Z,100013.41
2022-08-03T19:12:28.231Z,100004.50
2022-08-03T19:17:41.362Z,100011.53
2022-08-03T19:22:46.230Z,100012.91
2022-08-03T19:27:49.612Z,100014.75
2022-08-03T19:32:54.925Z,100018.81
2022-08-03T19:37:59.777Z,100021.50
2022-08-03T19:43:12.030Z,100016.34
2022-08-03T19:48:22.236Z,100011.19
2022-08-03T19:53:35.236Z,100008.47
2022-08-03T19:58:39.347Z,100014.84
2022-08-03T20:03:44.380Z,100015.88
2022-08-03T20:08:51.745Z,100016.84
2022-08-03T20:13:55.870Z,100008.47
2022-08-03T20:19:00.568Z,100019.13
2022-08-03T20:24:24.196Z,100020.97
2022-08-03T20:29:42.758Z,100027.34
2022-08-03T20:34:54.809Z,100027.19
2022-08-03T20:39:58.363Z,100032.94
2022-08-03T20:45:05.680Z,100025.47
2022-08-03T20:50:16.553Z,100040.34
2022-08-03T20:55:20.289Z,100034.72
2022-08-03T21:00:42.905Z,100033.34
2022-08-03T21:05:51.793Z,100031.25
2022-08-03T21:10:57.656Z,100033.94
2022-08-03T21:16:13.032Z,100037.72
2022-08-03T21:21:19.831Z,100036.53
2022-08-03T21:26:24.684Z,100032.66
2022-08-03T21:31:28.019Z,100037.81
2022-08-03T21:36:35.319Z,100031.19
2022-08-03T21:41:39.283Z,100030.44
2022-08-03T21:46:42.307Z,100035.59
2022-08-03T21:51:46.594Z,100046.13
2022-08-03T21:56:52.078Z,100042.16
2022-08-03T22:01:58.636Z,100030.59
2022-08-03T22:07:03.136Z,100032.88
2022-08-03T22:12:06.818Z,100032.88
2022-08-03T22:17:09.647Z,100038.31
2022-08-03T22:22:15.325Z,100032.88
2022-08-03T22:27:34.221Z,100033.63
2022-08-03T22:32:38.419Z,100039.38
2022-08-03T22:37:42.862Z,100037.69
2022-08-03T22:42:49.368Z,100034.91
2022-08-03T22:47:56.267Z,100039.72
2022-08-03T22:53:00.599Z,100037.94
2022-08-03T22:58:03.728Z,100036.81
2022-08-03T23:03:07.402Z,100039.59
2022-08-03T23:08:13.901Z,100037.84
2022-08-03T23:13:17.775Z,100035.50
2022-08-03T23:18:22.345Z,100036.34
2022-08-03T23:23:26.545Z,100029.72
2022-08-03T23:28:31.094Z,100030.91
2022-08-03T23:33:34.321Z,100028.88
2022-08-03T23:38:38.370Z,100031.13
2022-08-03T23:43:52.293Z,100025.69
2022-08-03T23:48:57.742Z,100022.41
2022-08-03T23:54:11.241Z,100028.25
2022-08-03T23:59:21.804Z,100020.31
